createdAt,value
2018-01-25T00:01:55.121Z,67.40
2018-01-25T00:04:24.422Z,67.10
2018-01-25T00:06:54.469Z,66.50
2018-01-25T00:09:22.826Z,66.50
2018-01-25T00:11:51.951Z,68.00
2018-01-25T00:14:20.335Z,68.00
2018-01-25T00:16:48.695Z,68.20
2018-01-25T00:19:17.088Z,67.70
2018-01-25T00:21:45.453Z,67.20
2018-01-25T00:24:14.053Z,66.90
2018-01-25T00:26:42.409Z,66.30
2018-01-25T00:29:10.773Z,66.00
2018-01-25T00:31:39.920Z,65.00
2018-01-25T00:34:08.277Z,65.00
2018-01-25T00:36:36.932Z,65.10
2018-01-25T00:39:06.063Z,65.40
2018-01-25T00:41:34.496Z,65.30
2018-01-25T00:44:03.613Z,65.90
2018-01-25T00:46:32.588Z,65.90
2018-01-25T00:49:01.744Z,66.20
2018-01-25T00:51:30.189Z,66.10
2018-01-25T00:53:58.590Z,66.20
2018-01-25T00:56:26.965Z,65.90
2018-01-25T00:58:55.537Z,65.80
2018-01-25T01:01:23.905Z,65.90
2018-01-25T01:03:53.993Z,65.90
2018-01-25T01:06:24.111Z,66.00
2018-01-25T01:08:52.791Z,66.20
2018-01-25T01:11:21.297Z,66.70
2018-01-25T01:13:50.813Z,66.60
2018-01-25T01:16:19.508Z,66.80
2018-01-25T01:18:47.874Z,66.90
2018-01-25T01:21:16.268Z,67.00
2018-01-25T01:23:44.652Z,67.40
2018-01-25T01:26:13.162Z,67.20
2018-01-25T01:28:41.644Z,66.90
2018-01-25T01:31:10.169Z,66.90
2018-01-25T01:33:38.983Z,66.80
2018-01-25T01:36:07.349Z,66.70
2018-01-25T01:38:35.713Z,66.70
2018-01-25T01:41:04.101Z,66.70
2018-01-25T01:43:32.472Z,66.70
2018-01-25T01:46:00.849Z,66.80
2018-01-25T01:48:29.240Z,67.00
2018-01-25T01:50:57.829Z,67.70
2018-01-25T01:53:26.189Z,67.90
2018-01-25T01:55:55.416Z,67.80
2018-01-25T01:58:24.717Z,69.30
2018-01-25T02:00:53.078Z,69.30
2018-01-25T02:03:21.480Z,69.80
2018-01-25T02:05:49.838Z,69.60
2018-01-25T02:08:18.268Z,69.70
2018-01-25T02:10:46.716Z,69.00
2018-01-25T02:13:15.081Z,68.40
2018-01-25T02:15:43.452Z,68.40
2018-01-25T02:18:11.813Z,68.30
2018-01-25T02:20:40.200Z,68.50
2018-01-25T02:23:08.561Z,69.00
2018-01-25T02:25:37.885Z,69.40
2018-01-25T02:28:06.244Z,69.40
2018-01-25T02:30:35.393Z,68.90
2018-01-25T02:33:03.781Z,68.90
2018-01-25T02:35:32.140Z,69.90
2018-01-25T02:38:00.516Z,68.80
2018-01-25T02:40:28.892Z,68.60
2018-01-25T02:42:57.457Z,68.30
2018-01-25T02:45:25.813Z,67.70
2018-01-25T02:47:54.938Z,67.60
2018-01-25T02:50:23.313Z,67.60
2018-01-25T02:52:51.693Z,68.50
2018-01-25T02:55:20.085Z,67.10
2018-01-25T02:57:48.444Z,66.80
2018-01-25T03:00:16.852Z,66.80
2018-01-25T03:02:45.209Z,66.70
2018-01-25T03:05:13.589Z,66.70
2018-01-25T03:07:41.965Z,66.80
2018-01-25T03:10:11.104Z,66.80
2018-01-25T03:12:39.485Z,66.90
2018-01-25T03:15:07.852Z,67.10
2018-01-25T03:17:36.266Z,66.60
2018-01-25T03:20:05.420Z,67.10
2018-01-25T03:22:33.801Z,66.30
2018-01-25T03:25:02.247Z,66.00
2018-01-25T03:27:31.339Z,65.40
2018-01-25T03:29:59.729Z,65.40
2018-01-25T03:32:28.090Z,65.20
2018-01-25T03:34:56.453Z,65.40
2018-01-25T03:37:25.633Z,65.20
2018-01-25T03:39:54.755Z,65.10
2018-01-25T03:42:23.139Z,65.10
2018-01-25T03:44:51.489Z,65.30
2018-01-25T03:47:20.638Z,64.90
2018-01-25T03:49:48.997Z,64.90
2018-01-25T03:52:17.367Z,65.30
2018-01-25T03:54:45.759Z,65.50
2018-01-25T03:57:14.116Z,65.10
2018-01-25T03:59:42.504Z,65.60
2018-01-25T04:02:10.860Z,65.80
2018-01-25T04:04:40.297Z,66.10
2018-01-25T04:07:08.657Z,66.10
2018-01-25T04:09:37.030Z,65.90
2018-01-25T04:12:05.412Z,66.00
2018-01-25T04:14:33.777Z,65.90
2018-01-25T04:17:02.921Z,66.30
2018-01-25T04:19:31.285Z,66.10
2018-01-25T04:21:59.737Z,66.10
2018-01-25T04:24:28.103Z,66.00
2018-01-25T04:26:57.235Z,66.60
2018-01-25T04:29:25.627Z,66.40
2018-01-25T04:31:54.016Z,66.60
2018-01-25T04:34:22.397Z,66.40
2018-01-25T04:36:50.754Z,66.30
2018-01-25T04:39:19.339Z,66.30
2018-01-25T04:41:47.720Z,66.30
2018-01-25T04:44:16.087Z,65.90
2018-01-25T04:46:44.471Z,65.60
2018-01-25T04:49:12.819Z,65.70
2018-01-25T04:51:41.965Z,65.90
2018-01-25T04:54:10.329Z,65.90
2018-01-25T04:56:38.740Z,65.90
2018-01-25T04:59:07.105Z,65.90
2018-01-25T05:01:35.464Z,66.00
2018-01-25T05:04:03.917Z,65.70
2018-01-25T05:06:32.278Z,65.60
2018-01-25T05:09:01.440Z,65.40
2018-01-25T05:11:29.800Z,65.40
2018-01-25T05:13:59.406Z,65.60
2018-01-25T05:16:27.773Z,65.70
2018-01-25T05:18:56.164Z,65.50
2018-01-25T05:21:24.565Z,65.70
2018-01-25T05:23:53.740Z,65.20
2018-01-25T05:26:22.128Z,65.20
2018-01-25T05:28:50.480Z,65.30
2018-01-25T05:31:19.075Z,65.10
2018-01-25T05:33:47.453Z,64.90
2018-01-25T05:36:15.832Z,64.80
2018-01-25T05:38:44.229Z,65.10
2018-01-25T05:41:12.620Z,65.00
2018-01-25T05:43:41.401Z,64.90
2018-01-25T05:46:09.764Z,64.90
2018-01-25T05:48:38.168Z,64.70
2018-01-25T05:51:06.551Z,64.70
2018-01-25T05:53:34.913Z,64.90
2018-01-25T05:56:03.469Z,65.00
2018-01-25T05:58:31.832Z,65.00
2018-01-25T06:01:00.196Z,65.10
2018-01-25T06:03:28.581Z,65.20
2018-01-25T06:05:57.928Z,65.10
2018-01-25T06:08:26.340Z,65.80
2018-01-25T06:10:55.658Z,65.20
2018-01-25T06:13:24.033Z,65.20
2018-01-25T06:15:52.419Z,65.10
2018-01-25T06:18:20.819Z,65.20
2018-01-25T06:20:49.220Z,65.20
2018-01-25T06:23:17.587Z,65.10
2018-01-25T06:25:45.959Z,65.00
2018-01-25T06:28:14.343Z,65.00
2018-01-25T06:30:42.704Z,65.20
2018-01-25T06:33:11.133Z,65.10
2018-01-25T06:35:39.496Z,65.10
2018-01-25T06:38:07.864Z,65.20
2018-01-25T06:40:36.250Z,65.30
2018-01-25T06:43:04.612Z,65.20
2018-01-25T06:45:33.272Z,65.30
2018-01-25T06:48:01.633Z,65.50
2018-01-25T06:50:29.992Z,65.50
2018-01-25T06:52:58.378Z,65.50
2018-01-25T06:55:27.512Z,65.60
2018-01-25T06:57:55.907Z,65.60
2018-01-25T07:00:24.261Z,65.40
2018-01-25T07:02:52.620Z,65.50
2018-01-25T07:05:21.760Z,65.40
2018-01-25T07:07:50.232Z,65.30
2018-01-25T07:10:18.897Z,65.50
2018-01-25T07:12:47.295Z,65.40
2018-01-25T07:15:15.656Z,65.30
2018-01-25T07:17:44.033Z,65.20
2018-01-25T07:20:12.388Z,64.90
2018-01-25T07:22:41.680Z,64.00
2018-01-25T07:25:10.819Z,63.60
2018-01-25T07:27:39.357Z,63.60
2018-01-25T07:30:08.508Z,62.20
2018-01-25T07:32:36.864Z,62.20
2018-01-25T07:35:05.394Z,62.00
2018-01-25T07:37:33.774Z,61.80
2018-01-25T07:40:02.967Z,61.50
2018-01-25T07:42:36.462Z,61.50
2018-01-25T07:45:04.824Z,61.20
2018-01-25T07:47:33.384Z,60.60
2018-01-25T07:50:01.737Z,60.00
2018-01-25T07:52:30.860Z,58.40
2018-01-25T07:54:59.244Z,58.40
2018-01-25T07:57:33.051Z,57.70
2018-01-25T08:00:01.467Z,56.90
2018-01-25T08:02:33.755Z,56.10
2018-01-25T08:05:03.299Z,54.60
2018-01-25T08:07:31.691Z,54.60
2018-01-25T08:10:00.056Z,53.60
2018-01-25T08:12:28.446Z,52.80
2018-01-25T08:14:56.812Z,50.80
2018-01-25T08:17:25.204Z,49.00
2018-01-25T08:19:53.610Z,47.80
2018-01-25T08:22:22.357Z,46.20
2018-01-25T08:24:50.742Z,44.90
2018-01-25T08:27:19.189Z,44.00
2018-01-25T08:29:48.338Z,39.30
2018-01-25T08:32:16.722Z,39.30
2018-01-25T08:34:45.142Z,38.70
2018-01-25T08:37:13.518Z,37.70
2018-01-25T08:39:41.898Z,36.80
2018-01-25T08:42:11.058Z,33.20
2018-01-25T08:44:39.430Z,33.20
2018-01-25T08:47:07.910Z,32.10
2018-01-25T08:49:36.465Z,31.90
2018-01-25T08:52:04.881Z,30.20
2018-01-25T08:54:33.289Z,29.70
2018-01-25T08:57:02.421Z,28.80
2018-01-25T08:59:31.014Z,28.80
2018-01-25T09:01:59.386Z,28.20
2018-01-25T09:04:27.769Z,28.30
2018-01-25T09:06:56.180Z,27.90
2018-01-25T09:09:25.308Z,27.10
2018-01-25T09:11:54.501Z,26.90
2018-01-25T09:14:23.638Z,25.80
2018-01-25T09:16:52.003Z,25.70
2018-01-25T09:19:20.393Z,25.40
2018-01-25T09:21:48.758Z,24.90
2018-01-25T09:24:17.206Z,24.40
2018-01-25T09:26:46.333Z,23.50
2018-01-25T09:29:14.705Z,23.50
2018-01-25T09:31:43.098Z,22.90
2018-01-25T09:34:11.465Z,23.10
2018-01-25T09:36:39.879Z,22.30
2018-01-25T09:39:08.245Z,22.70
2018-01-25T09:41:36.617Z,22.50
2018-01-25T09:44:05.009Z,22.00
2018-01-25T09:46:33.377Z,22.00
2018-01-25T09:49:02.061Z,21.20
2018-01-25T09:51:30.424Z,21.90
2018-01-25T09:53:58.787Z,21.90
2018-01-25T09:56:27.180Z,21.90
2018-01-25T09:58:55.549Z,22.00
2018-01-25T10:01:23.994Z,21.60
2018-01-25T10:03:52.365Z,21.70
2018-01-25T10:06:20.728Z,21.80
2018-01-25T10:08:49.109Z,21.70
2018-01-25T10:11:18.275Z,21.00
2018-01-25T10:13:46.862Z,20.90
2018-01-25T10:16:15.269Z,20.30
2018-01-25T10:18:43.648Z,19.60
2018-01-25T10:21:12.041Z,19.80
2018-01-25T10:23:40.421Z,19.30
2018-01-25T10:26:08.853Z,18.80
2018-01-25T10:28:37.226Z,18.40
2018-01-25T10:31:05.593Z,17.80
2018-01-25T10:33:33.994Z,18.00
2018-01-25T10:36:02.361Z,17.50
2018-01-25T10:38:31.053Z,17.10
2018-01-25T10:40:59.425Z,17.60
2018-01-25T10:43:27.795Z,17.30
2018-01-25T10:45:56.194Z,16.80
2018-01-25T10:48:24.561Z,17.10
2018-01-25T10:50:52.922Z,17.30
2018-01-25T10:53:21.314Z,17.00
2018-01-25T10:55:49.679Z,16.80
2018-01-25T10:58:18.063Z,16.60
2018-01-25T11:03:51.373Z,17.00
2018-01-25T11:06:19.969Z,17.00
2018-01-25T11:08:48.345Z,17.10
2018-01-25T11:11:16.721Z,16.60
2018-01-25T11:13:45.109Z,16.40
2018-01-25T11:16:13.476Z,16.30
2018-01-25T11:18:42.073Z,16.60
2018-01-25T11:21:10.439Z,16.80
2018-01-25T11:23:38.812Z,16.70
2018-01-25T11:26:07.201Z,16.80
2018-01-25T11:28:35.569Z,16.30
2018-01-25T11:31:04.161Z,16.90
2018-01-25T11:33:32.539Z,17.00
2018-01-25T11:36:00.915Z,16.80
2018-01-25T11:38:29.311Z,16.30
2018-01-25T11:40:57.713Z,16.00
2018-01-25T11:43:26.268Z,15.80
2018-01-25T11:45:54.640Z,15.90
2018-01-25T11:48:23.010Z,16.10
2018-01-25T11:50:51.417Z,15.80
2018-01-25T11:53:19.776Z,16.70
2018-01-25T11:55:48.205Z,17.60
2018-01-25T11:58:16.573Z,17.20
2018-01-25T12:00:44.938Z,18.10
2018-01-25T12:03:13.342Z,18.00
2018-01-25T12:05:41.709Z,18.80
2018-01-25T12:08:10.462Z,18.60
2018-01-25T12:10:38.826Z,19.10
2018-01-25T12:13:07.209Z,18.10
2018-01-25T12:15:35.612Z,18.70
2018-01-25T12:18:03.984Z,19.00
2018-01-25T12:20:32.662Z,20.20
2018-01-25T12:23:01.036Z,21.30
2018-01-25T12:25:29.524Z,21.90
2018-01-25T12:27:58.021Z,22.20
2018-01-25T12:30:26.394Z,22.50
2018-01-25T12:32:55.058Z,23.30
2018-01-25T12:35:23.421Z,24.00
2018-01-25T12:37:51.795Z,24.70
2018-01-25T12:40:20.205Z,24.90
2018-01-25T12:42:48.566Z,25.50
2018-01-25T12:45:16.954Z,26.10
2018-01-25T12:47:45.336Z,26.50
2018-01-25T12:50:13.762Z,27.00
2018-01-25T12:52:42.909Z,27.40
2018-01-25T12:55:11.308Z,27.30
2018-01-25T12:57:39.684Z,27.60
2018-01-25T13:00:08.377Z,27.40
2018-01-25T13:02:36.749Z,27.30
2018-01-25T13:05:05.183Z,26.40
2018-01-25T13:07:34.318Z,26.30
2018-01-25T13:10:02.693Z,26.20
2018-01-25T13:12:31.084Z,26.80
2018-01-25T13:14:59.453Z,27.00
2018-01-25T13:17:28.181Z,27.20
2018-01-25T13:19:57.329Z,27.20
2018-01-25T13:22:25.715Z,27.20
2018-01-25T13:24:54.157Z,27.90
2018-01-25T13:27:23.293Z,28.10
2018-01-25T13:29:51.690Z,28.10
2018-01-25T13:32:20.067Z,28.10
2018-01-25T13:34:48.471Z,28.10
2018-01-25T13:37:17.606Z,28.10
2018-01-25T13:39:45.973Z,28.10
2018-01-25T13:42:14.479Z,27.80
2018-01-25T13:44:42.858Z,28.10
2018-01-25T13:47:11.490Z,27.80
2018-01-25T13:49:40.640Z,27.40
2018-01-25T13:52:09.958Z,27.30
2018-01-25T13:54:38.413Z,27.50
2018-01-25T13:57:06.769Z,27.80
2018-01-25T13:59:35.166Z,28.40
2018-01-25T14:02:03.549Z,28.90
2018-01-25T14:04:31.992Z,29.40
2018-01-25T14:07:00.397Z,29.30
2018-01-25T14:09:28.817Z,29.10
2018-01-25T14:11:57.199Z,29.50
2018-01-25T14:14:25.638Z,28.90
2018-01-25T14:16:54.013Z,29.20
2018-01-25T14:19:22.499Z,29.90
2018-01-25T14:21:50.900Z,29.90
2018-01-25T14:24:19.336Z,30.20
2018-01-25T14:26:48.659Z,30.70
2018-01-25T14:29:17.037Z,30.60
2018-01-25T14:31:45.522Z,31.50
2018-01-25T14:34:13.921Z,31.80
2018-01-25T14:36:42.322Z,32.00
2018-01-25T14:39:10.709Z,32.00
2018-01-25T14:41:39.894Z,32.10
2018-01-25T14:44:09.361Z,31.80
2018-01-25T14:46:37.741Z,32.30
2018-01-25T14:49:06.110Z,33.00
2018-01-25T14:51:34.502Z,33.50
2018-01-25T14:54:02.877Z,33.90
2018-01-25T14:56:31.272Z,34.90
2018-01-25T14:58:59.754Z,34.80
2018-01-25T15:01:28.214Z,34.90
2018-01-25T15:03:56.577Z,35.30
2018-01-25T15:06:24.946Z,36.40
2018-01-25T15:08:53.381Z,37.10
2018-01-25T15:11:21.750Z,37.20
2018-01-25T15:13:50.141Z,38.00
2018-01-25T15:16:18.513Z,38.00
2018-01-25T15:18:47.281Z,38.20
2018-01-25T15:21:15.731Z,38.50
2018-01-25T15:23:44.214Z,38.70
2018-01-25T15:26:12.629Z,38.50
2018-01-25T15:28:41.162Z,38.60
2018-01-25T15:31:09.580Z,39.10
2018-01-25T15:33:38.193Z,39.50
2018-01-25T15:36:06.883Z,39.90
2018-01-25T15:38:35.507Z,40.40
2018-01-25T15:41:04.166Z,40.30
2018-01-25T15:43:34.432Z,40.90
2018-01-25T15:46:03.629Z,40.80
2018-01-25T15:48:32.769Z,42.00
2018-01-25T15:51:01.699Z,41.30
2018-01-25T15:53:30.919Z,41.60
2018-01-25T15:56:00.497Z,41.90
2018-01-25T15:58:31.027Z,42.20
2018-01-25T16:00:59.866Z,41.80
2018-01-25T16:03:29.102Z,42.20
2018-01-25T16:05:58.360Z,42.10
2018-01-25T16:08:27.132Z,42.30
2018-01-25T16:10:55.898Z,42.50
2018-01-25T16:13:25.147Z,42.70
2018-01-25T16:15:54.479Z,42.90
2018-01-25T16:18:24.102Z,42.90
2018-01-25T16:20:52.900Z,43.00
2018-01-25T16:23:21.695Z,42.80
2018-01-25T16:25:50.176Z,42.90
2018-01-25T16:28:29.798Z,43.20
2018-01-25T16:30:58.240Z,43.80
2018-01-25T16:33:27.417Z,44.10
2018-01-25T16:35:55.789Z,44.00
2018-01-25T16:38:24.457Z,44.10
2018-01-25T16:40:52.894Z,44.30
2018-01-25T16:43:25.575Z,44.90
2018-01-25T16:45:55.550Z,45.70
2018-01-25T16:48:23.993Z,45.70
2018-01-25T16:50:54.333Z,45.60
2018-01-25T16:53:23.054Z,45.60
2018-01-25T16:55:52.663Z,46.30
2018-01-25T16:58:22.434Z,46.20
2018-01-25T17:00:50.818Z,47.70
2018-01-25T17:03:20.017Z,47.20
2018-01-25T17:05:48.659Z,47.70
2018-01-25T17:08:18.328Z,48.20
2018-01-25T17:10:47.974Z,48.60
2018-01-25T17:13:18.098Z,48.60
2018-01-25T17:15:47.335Z,48.90
2018-01-25T17:18:16.771Z,49.60
2018-01-25T17:20:45.254Z,49.50
2018-01-25T17:23:14.755Z,49.70
2018-01-25T17:25:44.265Z,50.10
2018-01-25T17:28:12.685Z,50.10
2018-01-25T17:30:41.693Z,50.10
2018-01-25T17:33:10.283Z,50.20
2018-01-25T17:35:39.061Z,50.60
2018-01-25T17:38:07.492Z,50.80
2018-01-25T17:40:36.096Z,50.90
2018-01-25T17:43:04.618Z,51.30
2018-01-25T17:45:33.058Z,51.60
2018-01-25T17:48:02.258Z,52.00
2018-01-25T17:50:30.636Z,52.00
2018-01-25T17:52:59.650Z,52.00
2018-01-25T17:55:28.301Z,52.00
2018-01-25T17:57:58.292Z,53.00
2018-01-25T18:00:27.537Z,52.80
2018-01-25T18:02:55.913Z,52.80
2018-01-25T18:05:24.613Z,53.90
2018-01-25T18:07:54.667Z,53.90
2018-01-25T18:10:23.935Z,54.50
2018-01-25T18:12:52.735Z,54.50
2018-01-25T18:15:21.665Z,54.60
2018-01-25T18:17:50.790Z,54.80
2018-01-25T18:20:19.736Z,55.20
2018-01-25T18:22:50.677Z,55.50
2018-01-25T18:25:21.591Z,55.60
2018-01-25T18:27:50.834Z,55.50
2018-01-25T18:30:23.739Z,55.70
2018-01-25T18:32:53.151Z,55.80
2018-01-25T18:35:22.236Z,55.90
2018-01-25T18:37:52.757Z,56.10
2018-01-25T18:40:22.663Z,56.40
2018-01-25T18:42:51.765Z,56.60
2018-01-25T18:45:20.713Z,57.10
2018-01-25T18:47:49.949Z,57.40
2018-01-25T18:50:19.137Z,57.40
2018-01-25T18:52:48.086Z,57.40
2018-01-25T18:55:17.187Z,57.40
2018-01-25T18:57:47.253Z,57.50
2018-01-25T19:00:16.469Z,57.60
2018-01-25T19:02:45.589Z,58.50
2018-01-25T19:05:14.649Z,58.70
2018-01-25T19:07:43.833Z,59.10
2018-01-25T19:10:13.038Z,59.80
2018-01-25T19:12:43.231Z,59.90
2018-01-25T19:15:13.157Z,60.10
2018-01-25T19:17:43.538Z,60.40
2018-01-25T19:20:13.366Z,60.30
2018-01-25T19:22:42.227Z,60.10
2018-01-25T19:25:11.166Z,60.30
2018-01-25T19:27:40.976Z,60.40
2018-01-25T19:30:10.656Z,60.30
2018-01-25T19:32:39.903Z,60.30
2018-01-25T19:35:08.934Z,60.30
2018-01-25T19:37:37.848Z,60.50
2018-01-25T19:40:07.021Z,60.50
2018-01-25T19:42:36.833Z,60.70
2018-01-25T19:45:05.943Z,60.40
2018-01-25T19:47:35.090Z,60.10
2018-01-25T19:50:04.505Z,60.00
2018-01-25T19:52:35.330Z,60.10
2018-01-25T19:55:03.953Z,60.30
2018-01-25T19:57:32.754Z,60.30
2018-01-25T20:00:02.049Z,60.60
2018-01-25T20:02:31.017Z,60.60
2018-01-25T20:05:00.877Z,60.60
2018-01-25T20:07:30.608Z,60.70
2018-01-25T20:10:00.585Z,60.80
2018-01-25T20:12:30.191Z,60.70
2018-01-25T20:14:58.977Z,60.60
2018-01-25T20:17:28.518Z,61.00
2018-01-25T20:19:56.968Z,61.00
2018-01-25T20:22:27.688Z,60.80
2018-01-25T20:24:56.347Z,60.80
2018-01-25T20:27:25.476Z,61.00
2018-01-25T20:29:54.485Z,61.00
2018-01-25T20:32:23.887Z,60.80
2018-01-25T20:34:53.771Z,60.70
2018-01-25T20:37:22.577Z,60.70
2018-01-25T20:39:51.552Z,60.70
2018-01-25T20:42:21.068Z,60.50
2018-01-25T20:44:50.207Z,61.50
2018-01-25T20:47:19.025Z,61.10
2018-01-25T20:49:47.816Z,60.60
2018-01-25T20:52:16.345Z,60.60
2018-01-25T20:54:44.869Z,61.00
2018-01-25T20:57:14.050Z,60.10
2018-01-25T20:59:43.237Z,60.10
2018-01-25T21:02:13.012Z,60.10
2018-01-25T21:04:42.136Z,60.10
2018-01-25T21:07:12.029Z,60.60
2018-01-25T21:09:42.096Z,60.60
2018-01-25T21:12:11.433Z,60.30
2018-01-25T21:14:41.141Z,61.20
2018-01-25T21:17:10.354Z,61.20
2018-01-25T21:19:39.146Z,61.40
2018-01-25T21:22:07.518Z,61.60
2018-01-25T21:24:35.937Z,62.00
2018-01-25T21:27:04.435Z,61.80
2018-01-25T21:29:33.576Z,62.20
2018-01-25T21:32:03.388Z,62.20
2018-01-25T21:34:32.817Z,62.30
2018-01-25T21:37:02.059Z,63.00
2018-01-25T21:39:30.861Z,62.30
2018-01-25T21:42:00.487Z,62.30
2018-01-25T21:44:29.150Z,62.40
2018-01-25T21:46:57.678Z,62.70
2018-01-25T21:49:26.433Z,63.10
2018-01-25T21:51:54.942Z,62.70
2018-01-25T21:54:25.363Z,62.40
2018-01-25T21:56:56.277Z,62.40
2018-01-25T21:59:24.848Z,62.70
2018-01-25T22:01:53.281Z,62.50
2018-01-25T22:04:21.753Z,62.50
2018-01-25T22:06:50.202Z,62.40
2018-01-25T22:09:18.573Z,62.10
2018-01-25T22:11:46.976Z,62.20
2018-01-25T22:14:15.354Z,61.80
2018-01-25T22:16:43.778Z,61.60
2018-01-25T22:19:14.708Z,61.80
2018-01-25T22:21:44.495Z,61.70
2018-01-25T22:24:13.830Z,62.20
2018-01-25T22:26:42.958Z,62.20
2018-01-25T22:29:11.359Z,62.20
2018-01-25T22:31:40.169Z,62.20
2018-01-25T22:34:09.349Z,62.50
2018-01-25T22:36:37.908Z,62.50
2018-01-25T22:39:06.589Z,62.30
2018-01-25T22:41:35.551Z,62.20
2018-01-25T22:44:04.196Z,62.40
2018-01-25T22:46:32.652Z,62.40
2018-01-25T22:49:01.056Z,62.50
2018-01-25T22:51:29.524Z,63.00
2018-01-25T22:53:57.890Z,63.30
2018-01-25T22:56:26.452Z,63.40
2018-01-25T22:58:54.849Z,63.60
2018-01-25T23:01:23.235Z,63.60
2018-01-25T23:03:51.616Z,63.60
2018-01-25T23:06:20.014Z,64.10
2018-01-25T23:08:48.409Z,64.20
2018-01-25T23:11:16.776Z,64.20
2018-01-25T23:13:45.513Z,64.60
2018-01-25T23:16:13.885Z,64.30
2018-01-25T23:18:42.250Z,64.30
2018-01-25T23:21:11.588Z,64.60
2018-01-25T23:23:39.971Z,64.60
2018-01-25T23:26:08.356Z,64.80
2018-01-25T23:28:36.792Z,65.00
2018-01-25T23:31:05.605Z,64.40
2018-01-25T23:33:33.969Z,64.00
2018-01-25T23:36:02.380Z,63.80
2018-01-25T23:38:36.753Z,63.50
2018-01-25T23:41:06.296Z,63.50
2018-01-25T23:43:35.979Z,63.50
2018-01-25T23:46:04.366Z,63.40
2018-01-25T23:48:33.785Z,63.20
2018-01-25T23:51:02.191Z,62.90
2018-01-25T23:53:30.566Z,62.60
2018-01-25T23:55:59.022Z,62.90
2018-01-25T23:58:27.385Z,63.10
